createdAt,value
2023-04-18T00:01:46.720Z,100677.86
2023-04-18T00:04:18.556Z,100673.50
2023-04-18T00:06:56.489Z,100677.12
2023-04-18T00:09:25.455Z,100676.43
2023-04-18T00:11:54.440Z,100675.02
2023-04-18T00:14:26.052Z,100676.73
2023-04-18T00:17:13.628Z,100677.42
2023-04-18T00:19:45.545Z,100670.48
2023-04-18T00:22:22.432Z,100673.09
2023-04-18T00:25:02.052Z,100672.03
2023-04-18T00:27:31.078Z,100673.23
2023-04-18T00:30:02.541Z,100671.15
2023-04-18T00:32:39.221Z,100669.59
2023-04-18T00:35:07.754Z,100670.27
2023-04-18T00:37:36.009Z,100667.48
2023-04-18T00:40:05.779Z,100671.30
2023-04-18T00:42:37.046Z,100670.28
2023-04-18T00:45:06.518Z,100670.97
2023-04-18T00:47:34.872Z,100666.63
2023-04-18T00:50:03.764Z,100666.28
2023-04-18T00:52:34.336Z,100661.55
2023-04-18T00:55:10.144Z,100662.95
2023-04-18T00:57:38.684Z,100662.25
2023-04-18T01:00:11.010Z,100661.55
2023-04-18T01:02:40.832Z,100662.08
2023-04-18T01:05:09.872Z,100658.78
2023-04-18T01:07:42.129Z,100659.84
2023-04-18T01:10:11.184Z,100657.77
2023-04-18T01:12:41.486Z,100661.41
2023-04-18T01:15:10.160Z,100660.91
2023-04-18T01:17:40.334Z,100659.02
2023-04-18T01:24:07.176Z,100660.08
2023-04-18T01:26:36.010Z,100662.34
2023-04-18T01:29:04.666Z,100665.67
2023-04-18T01:31:38.184Z,100663.23
2023-04-18T01:34:08.011Z,100665.84
2023-04-18T01:36:41.040Z,100665.15
2023-04-18T01:39:09.679Z,100664.80
2023-04-18T01:41:38.425Z,100664.10
2023-04-18T01:44:09.114Z,100663.73
2023-04-18T01:46:37.814Z,100663.20
2023-04-18T01:49:09.717Z,100664.41
2023-04-18T01:51:46.168Z,100662.31
2023-04-18T01:54:15.493Z,100665.24
2023-04-18T01:56:44.242Z,100665.30
2023-04-18T01:59:13.270Z,100663.40
2023-04-18T02:01:42.955Z,100666.01
2023-04-18T02:04:11.659Z,100662.54
2023-04-18T02:06:40.077Z,100660.44
2023-04-18T02:09:08.720Z,100658.54
2023-04-18T02:11:36.941Z,100659.59
2023-04-18T02:14:05.197Z,100657.33
2023-04-18T02:16:35.425Z,100657.52
2023-04-18T02:19:04.569Z,100657.55
2023-04-18T02:21:32.861Z,100657.91
2023-04-18T02:24:01.442Z,100657.95
2023-04-18T02:26:29.882Z,100660.93
2023-04-18T02:28:58.944Z,100661.15
2023-04-18T02:31:27.254Z,100659.42
2023-04-18T02:33:55.991Z,100659.28
2023-04-18T02:36:38.980Z,100666.63
2023-04-18T02:39:07.433Z,100660.05
2023-04-18T02:41:37.913Z,100660.44
2023-04-18T02:44:07.349Z,100661.48
2023-04-18T02:46:35.624Z,100663.56
2023-04-18T02:49:04.075Z,100663.23
2023-04-18T02:51:32.488Z,100662.00
2023-04-18T02:54:01.122Z,100662.34
2023-04-18T02:56:29.750Z,100666.52
2023-04-18T02:58:57.900Z,100667.23
2023-04-18T03:01:26.301Z,100666.52
2023-04-18T03:03:54.768Z,100666.87
2023-04-18T03:06:23.354Z,100672.09
2023-04-18T03:08:55.742Z,100675.75
2023-04-18T03:11:24.488Z,100675.39
2023-04-18T03:13:55.851Z,100674.16
2023-04-18T03:16:27.417Z,100673.29
2023-04-18T03:18:58.929Z,100677.48
2023-04-18T03:21:28.049Z,100674.52
2023-04-18T03:23:59.769Z,100671.38
2023-04-18T03:26:28.478Z,100668.23
2023-04-18T03:29:03.047Z,100669.27
2023-04-18T03:31:51.915Z,100669.27
2023-04-18T03:34:20.603Z,100670.48
2023-04-18T03:36:52.023Z,100671.70
2023-04-18T03:39:23.993Z,100667.35
2023-04-18T03:41:55.317Z,100672.20
2023-04-18T03:44:23.881Z,100672.54
2023-04-18T03:46:52.282Z,100669.75
2023-04-18T03:49:20.426Z,100670.77
2023-04-18T03:51:52.309Z,100669.18
2023-04-18T03:54:20.633Z,100673.36
2023-04-18T03:56:52.731Z,100672.66
2023-04-18T03:59:37.707Z,100670.56
2023-04-18T04:02:06.352Z,100674.04
2023-04-18T04:05:07.506Z,100674.40
2023-04-18T04:07:35.896Z,100676.13
2023-04-18T04:10:07.540Z,100675.61
2023-04-18T04:12:36.290Z,100676.63
2023-04-18T04:15:05.688Z,100676.79
2023-04-18T04:17:34.064Z,100681.30
2023-04-18T04:20:07.526Z,100683.55
2023-04-18T04:22:38.957Z,100687.91
2023-04-18T04:25:08.409Z,100692.27
2023-04-18T04:27:36.985Z,100688.95
2023-04-18T04:30:06.938Z,100689.30
2023-04-18T04:32:35.757Z,100688.59
2023-04-18T04:35:24.558Z,100690.67
2023-04-18T04:37:53.315Z,100690.66
2023-04-18T04:40:23.200Z,100690.12
2023-04-18T04:42:54.283Z,100692.04
2023-04-18T04:45:23.575Z,100690.13
2023-04-18T04:47:52.523Z,100695.66
2023-04-18T04:50:21.096Z,100694.79
2023-04-18T04:52:50.055Z,100697.89
2023-04-18T04:55:21.085Z,100699.97
2023-04-18T04:57:49.502Z,100697.88
2023-04-18T05:00:21.093Z,100701.88
2023-04-18T05:02:49.969Z,100706.36
2023-04-18T05:05:18.635Z,100704.61
2023-04-18T05:07:50.625Z,100703.55
2023-04-18T05:10:26.502Z,100702.64
2023-04-18T05:13:05.734Z,100700.87
2023-04-18T05:15:34.981Z,100702.45
2023-04-18T05:18:05.837Z,100705.56
2023-04-18T05:20:34.820Z,100706.21
2023-04-18T05:23:03.048Z,100703.02
2023-04-18T05:25:32.176Z,100705.42
2023-04-18T05:28:01.488Z,100707.31
2023-04-18T05:30:39.742Z,100705.02
2023-04-18T05:33:08.332Z,100702.16
2023-04-18T05:35:36.816Z,100700.05
2023-04-18T05:38:08.469Z,100704.52
2023-04-18T05:40:36.838Z,100703.77
2023-04-18T05:43:13.752Z,100708.77
2023-04-18T05:45:42.346Z,100710.67
2023-04-18T05:48:10.769Z,100714.30
2023-04-18T05:50:43.106Z,100715.63
2023-04-18T05:53:11.760Z,100712.44
2023-04-18T05:55:41.264Z,100714.61
2023-04-18T05:58:10.722Z,100713.66
2023-04-18T06:00:40.526Z,100712.01
2023-04-18T06:03:10.823Z,100715.11
2023-04-18T06:05:41.221Z,100712.96
2023-04-18T06:08:09.993Z,100714.98
2023-04-18T06:10:39.214Z,100717.58
2023-04-18T06:13:07.548Z,100721.08
2023-04-18T06:15:35.873Z,100718.30
2023-04-18T06:18:05.400Z,100724.84
2023-04-18T06:20:33.550Z,100722.36
2023-04-18T06:23:01.935Z,100723.39
2023-04-18T06:25:32.908Z,100722.98
2023-04-18T06:28:05.600Z,100724.00
2023-04-18T06:30:34.025Z,100724.11
2023-04-18T06:33:02.493Z,100722.01
2023-04-18T06:35:32.049Z,100720.02
2023-04-18T06:38:00.341Z,100723.83
2023-04-18T06:40:30.033Z,100722.70
2023-04-18T06:42:58.293Z,100727.16
2023-04-18T06:45:26.840Z,100735.85
2023-04-18T06:47:55.142Z,100734.75
2023-04-18T06:50:23.561Z,100734.20
2023-04-18T06:52:54.568Z,100735.04
2023-04-18T06:55:23.372Z,100734.87
2023-04-18T06:57:51.653Z,100735.55
2023-04-18T07:00:23.277Z,100736.62
2023-04-18T07:02:52.216Z,100736.30
2023-04-18T07:05:21.956Z,100730.33
2023-04-18T07:07:51.811Z,100727.87
2023-04-18T07:10:20.199Z,100725.23
2023-04-18T07:12:48.801Z,100727.13
2023-04-18T07:15:19.418Z,100729.51
2023-04-18T07:17:50.891Z,100736.20
2023-04-18T07:20:21.547Z,100743.34
2023-04-18T07:22:59.165Z,100750.60
2023-04-18T07:25:28.113Z,100753.14
2023-04-18T07:27:56.415Z,100753.96
2023-04-18T07:30:24.867Z,100754.66
2023-04-18T07:32:53.253Z,100748.11
2023-04-18T07:35:21.904Z,100750.08
2023-04-18T07:37:50.200Z,100749.77
2023-04-18T07:40:21.159Z,100750.89
2023-04-18T07:42:49.825Z,100749.45
2023-04-18T07:45:18.212Z,100750.16
2023-04-18T07:47:47.058Z,100751.75
2023-04-18T07:50:21.759Z,100754.54
2023-04-18T07:52:50.031Z,100755.91
2023-04-18T07:55:18.688Z,100756.08
2023-04-18T07:57:50.764Z,100753.81
2023-04-18T08:00:19.317Z,100752.55
2023-04-18T08:02:50.234Z,100752.34
2023-04-18T08:05:21.479Z,100752.78
2023-04-18T08:07:49.777Z,100753.07
2023-04-18T08:10:18.180Z,100753.72
2023-04-18T08:12:46.681Z,100758.95
2023-04-18T08:15:18.638Z,100760.14
2023-04-18T08:17:49.302Z,100763.23
2023-04-18T08:20:17.821Z,100765.58
2023-04-18T08:23:06.221Z,100762.81
2023-04-18T08:25:37.762Z,100765.21
2023-04-18T08:28:18.911Z,100766.24
2023-04-18T08:30:51.491Z,100769.04
2023-04-18T08:33:20.299Z,100771.48
2023-04-18T08:35:48.656Z,100768.80
2023-04-18T08:38:19.491Z,100773.00
2023-04-18T08:40:47.710Z,100771.96
2023-04-18T08:43:16.149Z,100767.42
2023-04-18T08:45:51.168Z,100776.55
2023-04-18T08:48:19.522Z,100773.91
2023-04-18T08:50:47.951Z,100773.17
2023-04-18T08:53:19.009Z,100776.13
2023-04-18T08:55:48.130Z,100770.32
2023-04-18T08:58:22.464Z,100769.21
2023-04-18T09:00:55.065Z,100774.37
2023-04-18T09:03:55.777Z,100774.14
2023-04-18T09:06:25.539Z,100774.64
2023-04-18T09:08:59.276Z,100773.52
2023-04-18T09:11:34.630Z,100771.39
2023-04-18T09:14:03.721Z,100767.80
2023-04-18T09:16:50.731Z,100769.13
2023-04-18T09:19:19.231Z,100767.45
2023-04-18T09:21:58.086Z,100766.64
2023-04-18T09:24:32.944Z,100769.09
2023-04-18T09:27:01.423Z,100768.05
2023-04-18T09:30:05.186Z,100766.86
2023-04-18T09:32:34.115Z,100767.70
2023-04-18T09:35:05.730Z,100764.73
2023-04-18T09:37:35.420Z,100767.92
2023-04-18T09:40:17.413Z,100767.02
2023-04-18T09:42:48.209Z,100770.59
2023-04-18T09:45:16.449Z,100762.29
2023-04-18T09:47:44.791Z,100771.86
2023-04-18T09:50:13.736Z,100768.75
2023-04-18T09:52:46.507Z,100769.83
2023-04-18T09:55:17.474Z,100766.08
2023-04-18T09:57:48.855Z,100767.81
2023-04-18T10:00:24.894Z,100767.05
2023-04-18T10:03:06.096Z,100763.63
2023-04-18T10:05:37.595Z,100761.47
2023-04-18T10:08:08.483Z,100765.29
2023-04-18T10:10:38.810Z,100762.60
2023-04-18T10:13:11.292Z,100765.98
2023-04-18T10:15:44.288Z,100764.13
2023-04-18T10:18:19.012Z,100764.36
2023-04-18T10:20:48.159Z,100764.67
2023-04-18T10:23:32.111Z,100761.05
2023-04-18T10:26:09.713Z,100762.55
2023-04-18T10:28:55.117Z,100762.38
2023-04-18T10:31:28.815Z,100763.75
2023-04-18T10:34:05.307Z,100762.90
2023-04-18T10:36:34.964Z,100762.29
2023-04-18T10:39:22.038Z,100765.39
2023-04-18T10:41:51.603Z,100766.25
2023-04-18T10:44:23.262Z,100761.82
2023-04-18T10:46:52.636Z,100764.52
2023-04-18T10:52:09.857Z,100760.92
2023-04-18T10:54:51.106Z,100759.83
2023-04-18T10:57:44.758Z,100761.03
2023-04-18T11:00:16.984Z,100761.92
2023-04-18T11:02:51.026Z,100758.64
2023-04-18T11:05:22.060Z,100761.00
2023-04-18T11:07:56.343Z,100761.22
2023-04-18T11:10:27.808Z,100759.48
2023-04-18T11:12:56.701Z,100762.92
2023-04-18T11:15:25.930Z,100761.70
2023-04-18T11:18:03.441Z,100761.44
2023-04-18T11:20:50.602Z,100765.02
2023-04-18T11:23:23.140Z,100763.77
2023-04-18T11:25:58.516Z,100763.56
2023-04-18T11:28:30.570Z,100761.73
2023-04-18T11:31:00.475Z,100760.42
2023-04-18T11:33:29.658Z,100763.02
2023-04-18T11:36:03.868Z,100760.66
2023-04-18T11:38:52.886Z,100763.77
2023-04-18T11:41:26.576Z,100756.64
2023-04-18T11:43:56.637Z,100760.23
2023-04-18T11:46:45.497Z,100758.55
2023-04-18T11:49:27.069Z,100757.23
2023-04-18T11:51:56.476Z,100756.40
2023-04-18T11:54:45.028Z,100755.90
2023-04-18T11:57:22.464Z,100758.20
2023-04-18T11:59:59.616Z,100757.20
2023-04-18T12:02:43.497Z,100756.20
2023-04-18T12:05:29.431Z,100756.71
2023-04-18T12:08:11.619Z,100755.77
2023-04-18T12:10:47.665Z,100753.89
2023-04-18T12:13:15.981Z,100748.02
2023-04-18T12:15:46.339Z,100750.84
2023-04-18T12:18:18.273Z,100751.13
2023-04-18T12:20:52.424Z,100749.73
2023-04-18T12:23:39.304Z,100750.37
2023-04-18T12:26:15.190Z,100748.99
2023-04-18T12:28:46.800Z,100749.30
2023-04-18T12:31:15.001Z,100745.59
2023-04-18T12:33:43.167Z,100742.58
2023-04-18T12:36:11.405Z,100743.60
2023-04-18T12:38:40.192Z,100745.86
2023-04-18T12:41:11.540Z,100747.79
2023-04-18T12:43:39.854Z,100744.53
2023-04-18T12:46:08.204Z,100741.42
2023-04-18T12:48:37.069Z,100738.49
2023-04-18T12:51:07.124Z,100743.14
2023-04-18T12:53:35.579Z,100738.44
2023-04-18T12:56:04.204Z,100731.97
2023-04-18T12:58:32.622Z,100736.22
2023-04-18T13:01:01.210Z,100735.23
2023-04-18T13:03:29.857Z,100732.36
2023-04-18T13:05:58.371Z,100736.22
2023-04-18T13:08:26.803Z,100729.09
2023-04-18T13:11:15.968Z,100727.14
2023-04-18T13:13:44.186Z,100721.67
2023-04-18T13:16:14.966Z,100726.38
2023-04-18T13:18:43.338Z,100724.69
2023-04-18T13:21:11.551Z,100718.87
2023-04-18T13:23:39.650Z,100713.99
2023-04-18T13:26:13.492Z,100712.76
2023-04-18T13:28:42.450Z,100711.14
2023-04-18T13:31:15.708Z,100713.14
2023-04-18T13:33:51.799Z,100710.63
2023-04-18T13:36:24.032Z,100710.31
2023-04-18T13:38:53.479Z,100709.83
2023-04-18T13:41:23.749Z,100705.39
2023-04-18T13:44:00.044Z,100709.46
2023-04-18T13:46:28.649Z,100706.67
2023-04-18T13:49:09.901Z,100707.58
2023-04-18T13:51:38.544Z,100704.74
2023-04-18T13:54:08.645Z,100708.41
2023-04-18T13:56:37.064Z,100705.04
2023-04-18T13:59:28.067Z,100697.70
2023-04-18T14:01:56.921Z,100699.25
2023-04-18T14:04:26.033Z,100700.98
2023-04-18T14:07:00.451Z,100700.23
2023-04-18T14:09:31.918Z,100705.04
2023-04-18T14:12:11.952Z,100709.27
2023-04-18T14:14:43.289Z,100710.66
2023-04-18T14:17:11.793Z,100711.05
2023-04-18T14:19:43.217Z,100710.45
2023-04-18T14:22:18.045Z,100713.35
2023-04-18T14:24:54.742Z,100711.64
2023-04-18T14:27:25.605Z,100710.05
2023-04-18T14:29:54.287Z,100711.10
2023-04-18T14:32:22.883Z,100707.52
2023-04-18T14:34:54.746Z,100709.05
2023-04-18T14:37:23.250Z,100706.19
2023-04-18T14:39:51.710Z,100704.56
2023-04-18T14:42:21.388Z,100700.08
2023-04-18T14:44:56.930Z,100701.61
2023-04-18T14:47:31.017Z,100699.65
2023-04-18T14:50:09.652Z,100697.87
2023-04-18T14:52:40.362Z,100694.02
2023-04-18T14:55:09.926Z,100694.77
2023-04-18T14:57:49.339Z,100698.15
2023-04-18T15:00:18.050Z,100694.45
2023-04-18T15:02:46.546Z,100694.73
2023-04-18T15:05:17.631Z,100693.08
2023-04-18T15:07:47.249Z,100690.10
2023-04-18T15:10:23.213Z,100689.84
2023-04-18T15:12:54.121Z,100688.13
2023-04-18T15:15:35.102Z,100690.69
2023-04-18T15:18:13.905Z,100689.44
2023-04-18T15:20:44.873Z,100688.23
2023-04-18T15:23:14.493Z,100690.60
2023-04-18T15:25:47.660Z,100688.45
2023-04-18T15:28:19.666Z,100689.85
2023-04-18T15:30:51.001Z,100687.36
2023-04-18T15:33:41.472Z,100691.14
2023-04-18T15:36:10.282Z,100687.89
2023-04-18T15:38:46.252Z,100687.27
2023-04-18T15:41:14.911Z,100687.98
2023-04-18T15:43:45.562Z,100688.70
2023-04-18T15:47:15.639Z,100689.95
2023-04-18T15:50:05.644Z,100687.69
2023-04-18T15:52:33.994Z,100688.91
2023-04-18T15:55:02.451Z,100689.08
2023-04-18T15:57:41.163Z,100687.89
2023-04-18T16:00:16.409Z,100686.88
2023-04-18T16:03:04.916Z,100686.19
2023-04-18T16:05:36.135Z,100685.97
2023-04-18T16:08:04.867Z,100688.06
2023-04-18T16:10:33.704Z,100686.98
2023-04-18T16:13:14.597Z,100686.79
2023-04-18T16:15:48.323Z,100687.08
2023-04-18T16:18:17.509Z,100687.41
2023-04-18T16:20:47.273Z,100689.52
2023-04-18T16:23:35.883Z,100688.45
2023-04-18T16:26:04.294Z,100691.52
2023-04-18T16:29:02.003Z,100688.30
2023-04-18T16:31:51.796Z,100685.58
2023-04-18T16:34:20.402Z,100684.55
2023-04-18T16:36:50.814Z,100683.53
2023-04-18T16:39:20.055Z,100684.34
2023-04-18T16:42:04.085Z,100682.30
2023-04-18T16:44:33.545Z,100680.45
2023-04-18T16:47:03.073Z,100682.06
2023-04-18T16:49:31.997Z,100681.92
2023-04-18T16:52:08.338Z,100684.12
2023-04-18T16:54:39.758Z,100682.97
2023-04-18T16:57:08.852Z,100686.52
2023-04-18T16:59:37.712Z,100685.52
2023-04-18T17:02:07.732Z,100685.80
2023-04-18T17:04:37.220Z,100685.39
2023-04-18T17:07:06.169Z,100686.34
2023-04-18T17:09:44.567Z,100683.83
2023-04-18T17:12:15.702Z,100685.85
2023-04-18T17:14:44.404Z,100686.07
2023-04-18T17:17:15.688Z,100685.20
2023-04-18T17:19:44.054Z,100687.19
2023-04-18T17:22:13.797Z,100685.04
2023-04-18T17:24:50.430Z,100685.54
2023-04-18T17:27:40.088Z,100690.08
2023-04-18T17:30:09.100Z,100689.73
2023-04-18T17:32:43.120Z,100691.05
2023-04-18T17:35:15.103Z,100689.05
2023-04-18T17:37:48.072Z,100689.73
2023-04-18T17:40:16.511Z,100689.14
2023-04-18T17:42:48.034Z,100694.36
2023-04-18T17:45:20.715Z,100691.89
2023-04-18T17:47:53.991Z,100693.27
2023-04-18T17:50:22.441Z,100692.48
2023-04-18T17:52:51.157Z,100692.96
2023-04-18T17:55:19.923Z,100688.31
2023-04-18T17:57:48.536Z,100689.28
2023-04-18T18:00:18.482Z,100688.67
2023-04-18T18:02:46.963Z,100685.80
2023-04-18T18:05:24.047Z,100690.30
2023-04-18T18:07:57.388Z,100691.80
2023-04-18T18:10:26.172Z,100696.31
2023-04-18T18:12:56.678Z,100697.45
2023-04-18T18:15:34.906Z,100696.50
2023-04-18T18:18:03.250Z,100701.19
2023-04-18T18:20:31.622Z,100699.54
2023-04-18T18:23:00.372Z,100699.98
2023-04-18T18:25:31.609Z,100696.74
2023-04-18T18:28:03.542Z,100694.17
2023-04-18T18:30:34.432Z,100695.65
2023-04-18T18:33:03.617Z,100696.41
2023-04-18T18:35:31.888Z,100696.66
2023-04-18T18:38:10.462Z,100696.94
2023-04-18T18:40:38.792Z,100696.16
2023-04-18T18:43:07.457Z,100696.77
2023-04-18T18:45:50.174Z,100698.27
2023-04-18T18:48:18.962Z,100696.92
2023-04-18T18:50:47.369Z,100699.64
2023-04-18T18:53:18.199Z,100699.68
2023-04-18T18:55:46.478Z,100699.58
2023-04-18T18:58:17.327Z,100701.75
2023-04-18T19:00:57.186Z,100700.07
2023-04-18T19:03:32.100Z,100698.73
2023-04-18T19:06:21.379Z,100695.29
2023-04-18T19:08:52.488Z,100696.71
2023-04-18T19:11:21.337Z,100698.30
2023-04-18T19:13:52.107Z,100701.48
2023-04-18T19:16:23.913Z,100702.59
2023-04-18T19:18:55.053Z,100703.58
2023-04-18T19:21:23.456Z,100704.49
2023-04-18T19:24:11.413Z,100705.04
2023-04-18T19:26:43.670Z,100707.27
2023-04-18T19:29:18.589Z,100709.18
2023-04-18T19:31:46.997Z,100703.94
2023-04-18T19:34:22.514Z,100701.88
2023-04-18T19:36:53.884Z,100705.10
2023-04-18T19:39:31.801Z,100699.90
2023-04-18T19:42:09.774Z,100700.98
2023-04-18T19:44:48.427Z,100701.36
2023-04-18T19:47:22.001Z,100698.91
2023-04-18T19:49:53.754Z,100696.96
2023-04-18T19:52:43.568Z,100696.08
2023-04-18T19:55:12.430Z,100694.30
2023-04-18T19:57:43.548Z,100692.63
2023-04-18T20:00:13.691Z,100691.30
2023-04-18T20:02:43.519Z,100687.70
2023-04-18T20:05:13.133Z,100685.67
2023-04-18T20:07:42.140Z,100682.09
2023-04-18T20:10:11.196Z,100685.28
2023-04-18T20:12:52.991Z,100680.95
2023-04-18T20:15:22.804Z,100681.41
2023-04-18T20:17:51.517Z,100676.63
2023-04-18T20:20:20.027Z,100675.57
2023-04-18T20:22:58.776Z,100677.83
2023-04-18T20:25:27.526Z,100680.26
2023-04-18T20:27:56.358Z,100682.52
2023-04-18T20:30:24.890Z,100679.36
2023-04-18T20:32:53.561Z,100677.80
2023-04-18T20:35:31.800Z,100678.33
2023-04-18T20:38:00.692Z,100677.58
2023-04-18T20:40:33.563Z,100683.38
2023-04-18T20:43:06.976Z,100680.75
2023-04-18T20:45:37.807Z,100684.55
2023-04-18T20:48:09.872Z,100684.46
2023-04-18T20:50:44.172Z,100688.96
2023-04-18T20:53:16.295Z,100691.51
2023-04-18T20:55:47.294Z,100690.04
2023-04-18T20:58:17.303Z,100687.13
2023-04-18T21:00:48.364Z,100686.95
2023-04-18T21:03:19.428Z,100690.13
2023-04-18T21:05:47.958Z,100689.65
2023-04-18T21:08:16.976Z,100690.59
2023-04-18T21:10:45.236Z,100688.70
2023-04-18T21:13:13.624Z,100687.17
2023-04-18T21:15:47.612Z,100686.66
2023-04-18T21:18:22.512Z,100685.98
2023-04-18T21:20:53.174Z,100685.42
2023-04-18T21:23:23.767Z,100679.02
2023-04-18T21:25:54.340Z,100683.31
2023-04-18T21:28:27.317Z,100679.17
2023-04-18T21:30:56.510Z,100681.97
2023-04-18T21:33:26.340Z,100679.64
2023-04-18T21:35:57.823Z,100682.17
2023-04-18T21:38:32.608Z,100676.11
2023-04-18T21:41:00.894Z,100670.88
2023-04-18T21:43:29.799Z,100670.80
2023-04-18T21:45:58.026Z,100667.66
2023-04-18T21:48:47.899Z,100667.98
2023-04-18T21:51:17.576Z,100669.67
2023-04-18T21:53:56.579Z,100666.09
2023-04-18T21:56:25.036Z,100670.02
2023-04-18T21:58:53.241Z,100665.79
2023-04-18T22:01:21.574Z,100663.77
2023-04-18T22:03:51.510Z,100663.16
2023-04-18T22:06:21.015Z,100657.45
2023-04-18T22:08:59.804Z,100654.22
2023-04-18T22:11:28.738Z,100651.91
2023-04-18T22:13:58.269Z,100648.95
2023-04-18T22:16:45.258Z,100646.86
2023-04-18T22:19:14.279Z,100645.95
2023-04-18T22:21:43.168Z,100644.10
2023-04-18T22:24:11.854Z,100642.84
2023-04-18T22:26:48.119Z,100640.58
2023-04-18T22:29:16.766Z,100638.97
2023-04-18T22:31:57.790Z,100635.98
2023-04-18T22:34:26.056Z,100634.92
2023-04-18T22:36:54.786Z,100635.70
2023-04-18T22:39:23.184Z,100633.81
2023-04-18T22:41:51.872Z,100629.35
2023-04-18T22:44:29.634Z,100630.78
2023-04-18T22:46:58.329Z,100629.59
2023-04-18T22:49:30.231Z,100628.72
2023-04-18T22:52:14.444Z,100624.94
2023-04-18T22:54:52.400Z,100621.07
2023-04-18T22:57:23.555Z,100621.38
2023-04-18T22:59:51.761Z,100620.80
2023-04-18T23:02:20.573Z,100616.93
2023-04-18T23:04:53.478Z,100615.88
2023-04-18T23:07:21.774Z,100618.33
2023-04-18T23:09:50.429Z,100613.60
2023-04-18T23:12:29.062Z,100611.00
2023-04-18T23:15:04.459Z,100610.00
2023-04-18T23:17:35.072Z,100611.59
2023-04-18T23:20:10.030Z,100609.85
2023-04-18T23:22:39.353Z,100608.30
2023-04-18T23:25:10.377Z,100608.48
2023-04-18T23:27:52.575Z,100609.77
2023-04-18T23:30:21.208Z,100606.20
2023-04-18T23:32:49.684Z,100605.77
2023-04-18T23:35:17.960Z,100603.08
2023-04-18T23:37:46.380Z,100601.62
2023-04-18T23:40:14.743Z,100596.80
2023-04-18T23:42:44.109Z,100592.69
2023-04-18T23:45:12.810Z,100592.48
2023-04-18T23:47:53.836Z,100589.65
2023-04-18T23:50:22.042Z,100589.08
2023-04-18T23:52:50.390Z,100587.64
2023-04-18T23:55:19.027Z,100589.30
2023-04-18T23:59:02.709Z,100583.73
